createdAt,value
2022-11-10T00:00:54.648Z,4.33
2022-11-10T00:03:22.721Z,4.33
2022-11-10T00:05:50.008Z,4.23
2022-11-10T00:08:17.531Z,4.30
2022-11-10T00:10:53.797Z,4.90
2022-11-10T00:13:21.551Z,3.80
2022-11-10T00:16:06.973Z,4.20
2022-11-10T00:18:34.508Z,4.97
2022-11-10T00:21:02.821Z,3.87
2022-11-10T00:23:30.346Z,3.73
2022-11-10T00:25:58.638Z,3.90
2022-11-10T00:28:26.184Z,3.73
2022-11-10T00:30:54.497Z,4.07
2022-11-10T00:33:22.381Z,3.87
2022-11-10T00:35:49.574Z,5.23
2022-11-10T00:38:18.163Z,3.97
2022-11-10T00:40:46.466Z,4.80
2022-11-10T00:43:14.001Z,5.57
2022-11-10T00:45:45.023Z,4.90
2022-11-10T00:48:12.571Z,9.17
2022-11-10T00:50:40.091Z,15.00
2022-11-10T00:53:07.645Z,10.23
2022-11-10T00:55:35.181Z,5.23
2022-11-10T00:58:02.717Z,3.97
2022-11-10T01:00:30.298Z,3.90
2022-11-10T01:02:57.827Z,3.80
2022-11-10T01:05:25.387Z,3.77
2022-11-10T01:07:52.982Z,4.90
2022-11-10T01:10:20.508Z,6.40
2022-11-10T01:12:48.054Z,5.63
2022-11-10T01:15:15.586Z,5.53
2022-11-10T01:17:43.121Z,9.75
2022-11-10T01:20:10.852Z,7.53
2022-11-10T01:22:39.174Z,6.00
2022-11-10T01:25:06.759Z,6.80
2022-11-10T01:27:34.307Z,7.00
2022-11-10T01:30:01.860Z,5.90
2022-11-10T01:32:29.402Z,6.97
2022-11-10T01:34:56.931Z,8.87
2022-11-10T01:37:25.259Z,6.37
2022-11-10T01:39:52.816Z,6.80
2022-11-10T01:42:23.008Z,6.80
2022-11-10T01:45:25.207Z,7.47
2022-11-10T01:47:55.217Z,6.90
2022-11-10T01:50:22.770Z,6.10
2022-11-10T01:52:50.315Z,5.27
2022-11-10T01:55:17.869Z,6.30
2022-11-10T01:57:46.165Z,5.53
2022-11-10T02:00:13.797Z,5.20
2022-11-10T02:02:42.110Z,5.13
2022-11-10T02:05:09.693Z,7.05
2022-11-10T02:07:37.249Z,5.77
2022-11-10T02:10:04.880Z,6.57
2022-11-10T02:12:38.109Z,8.75
2022-11-10T02:15:05.709Z,6.23
2022-11-10T02:17:33.247Z,6.27
2022-11-10T02:20:00.780Z,5.40
2022-11-10T02:22:28.332Z,4.47
2022-11-10T02:24:55.860Z,4.57
2022-11-10T02:27:23.384Z,4.00
2022-11-10T02:29:51.708Z,5.20
2022-11-10T02:32:19.255Z,7.80
2022-11-10T02:34:46.805Z,7.80
2022-11-10T02:37:14.359Z,9.97
2022-11-10T02:39:41.893Z,12.43
2022-11-10T02:42:09.439Z,10.93
2022-11-10T02:44:39.611Z,12.27
2022-11-10T02:47:07.136Z,9.20
2022-11-10T02:49:35.443Z,11.97
2022-11-10T02:52:03.045Z,12.52
2022-11-10T02:54:30.569Z,10.67
2022-11-10T02:56:58.112Z,7.63
2022-11-10T02:59:25.657Z,8.97
2022-11-10T03:01:53.949Z,7.30
2022-11-10T03:04:21.487Z,6.70
2022-11-10T03:06:49.823Z,5.43
2022-11-10T03:09:17.338Z,4.80
2022-11-10T03:11:45.645Z,6.50
2022-11-10T03:14:13.190Z,7.63
2022-11-10T03:16:40.723Z,8.00
2022-11-10T03:19:09.046Z,6.90
2022-11-10T03:21:36.621Z,7.03
2022-11-10T03:24:04.164Z,6.90
2022-11-10T03:26:31.707Z,5.77
2022-11-10T03:28:59.254Z,5.97
2022-11-10T03:31:26.801Z,5.63
2022-11-10T03:33:54.334Z,5.60
2022-11-10T03:36:21.909Z,5.73
2022-11-10T03:38:50.211Z,5.50
2022-11-10T03:41:19.756Z,6.00
2022-11-10T03:43:45.291Z,5.20
2022-11-10T03:46:12.835Z,6.10
2022-11-10T03:48:40.360Z,5.57
2022-11-10T03:51:07.925Z,7.85
2022-11-10T03:53:35.449Z,6.63
2022-11-10T03:56:03.765Z,5.67
2022-11-10T03:58:31.348Z,5.90
2022-11-10T04:00:58.878Z,7.13
2022-11-10T04:03:26.403Z,6.30
2022-11-10T04:06:12.669Z,5.90
2022-11-10T04:08:58.527Z,7.17
2022-11-10T04:11:44.237Z,6.70
2022-11-10T04:14:30.212Z,5.50
2022-11-10T04:16:57.779Z,5.20
2022-11-10T04:19:25.313Z,7.20
2022-11-10T04:21:52.848Z,5.13
2022-11-10T04:24:21.171Z,5.97
2022-11-10T04:26:48.772Z,5.80
2022-11-10T04:29:16.251Z,6.53
2022-11-10T04:31:44.215Z,7.17
2022-11-10T04:34:11.707Z,6.53
2022-11-10T04:36:39.253Z,7.43
2022-11-10T04:39:07.202Z,6.37
2022-11-10T04:41:34.736Z,7.17
2022-11-10T04:44:03.040Z,7.72
2022-11-10T04:46:36.101Z,5.37
2022-11-10T04:49:04.421Z,5.20
2022-11-10T04:51:31.979Z,5.20
2022-11-10T04:54:00.243Z,4.73
2022-11-10T04:56:27.781Z,5.37
2022-11-10T04:58:56.078Z,5.67
2022-11-10T05:01:23.711Z,5.20
2022-11-10T05:03:51.169Z,6.13
2022-11-10T05:06:19.480Z,7.40
2022-11-10T05:08:47.055Z,4.83
2022-11-10T05:11:14.593Z,6.07
2022-11-10T05:13:42.129Z,5.27
2022-11-10T05:16:10.479Z,5.77
2022-11-10T05:18:38.024Z,6.07
2022-11-10T05:21:05.549Z,4.87
2022-11-10T05:23:39.353Z,4.97
2022-11-10T05:26:06.830Z,5.23
2022-11-10T05:28:34.364Z,5.30
2022-11-10T05:31:02.036Z,7.80
2022-11-10T05:33:29.572Z,10.80
2022-11-10T05:35:57.109Z,9.07
2022-11-10T05:38:24.661Z,9.47
2022-11-10T05:40:52.186Z,9.20
2022-11-10T05:43:19.964Z,8.70
2022-11-10T05:45:47.274Z,8.43
2022-11-10T05:48:14.809Z,5.33
2022-11-10T05:50:43.091Z,4.23
2022-11-10T05:53:11.405Z,4.47
2022-11-10T05:55:38.949Z,4.30
2022-11-10T05:58:06.475Z,3.80
2022-11-10T06:00:35.328Z,4.43
2022-11-10T06:03:02.950Z,4.60
2022-11-10T06:05:31.485Z,4.97
2022-11-10T06:07:58.266Z,4.50
2022-11-10T06:10:25.803Z,5.10
2022-11-10T06:12:53.337Z,5.30
2022-11-10T06:15:22.088Z,5.33
2022-11-10T06:17:49.606Z,6.37
2022-11-10T06:20:17.914Z,5.73
2022-11-10T06:22:45.507Z,4.90
2022-11-10T06:25:13.032Z,5.37
2022-11-10T06:27:40.587Z,5.73
2022-11-10T06:30:08.506Z,5.70
2022-11-10T06:32:36.041Z,6.23
2022-11-10T06:35:03.565Z,8.00
2022-11-10T06:37:31.159Z,6.70
2022-11-10T06:39:58.675Z,6.13
2022-11-10T06:42:26.968Z,6.77
2022-11-10T06:44:54.572Z,7.93
2022-11-10T06:47:22.124Z,7.33
2022-11-10T06:49:49.728Z,10.95
2022-11-10T06:52:18.190Z,8.23
2022-11-10T06:54:45.694Z,8.13
2022-11-10T06:57:13.229Z,10.13
2022-11-10T06:59:41.561Z,9.60
2022-11-10T07:02:09.106Z,10.30
2022-11-10T07:04:36.651Z,10.60
2022-11-10T07:07:04.545Z,10.27
2022-11-10T07:09:32.044Z,6.83
2022-11-10T07:12:00.359Z,9.13
2022-11-10T07:14:27.943Z,7.40
2022-11-10T07:16:55.465Z,8.00
2022-11-10T07:19:23.006Z,10.02
2022-11-10T07:21:51.337Z,9.23
2022-11-10T07:24:18.883Z,8.30
2022-11-10T07:26:46.420Z,7.37
2022-11-10T07:29:13.991Z,7.13
2022-11-10T07:31:41.535Z,6.63
2022-11-10T07:34:09.079Z,7.03
2022-11-10T07:36:36.646Z,5.70
2022-11-10T07:39:04.170Z,5.97
2022-11-10T07:41:31.712Z,6.27
2022-11-10T07:43:59.308Z,6.73
2022-11-10T07:46:27.611Z,8.18
2022-11-10T07:48:55.145Z,5.90
2022-11-10T07:51:23.753Z,5.87
2022-11-10T07:53:51.291Z,6.17
2022-11-10T07:56:19.592Z,5.67
2022-11-10T07:58:47.164Z,5.43
2022-11-10T08:01:14.737Z,5.97
2022-11-10T08:03:45.830Z,6.40
2022-11-10T08:06:14.228Z,6.10
2022-11-10T08:08:41.716Z,6.37
2022-11-10T08:11:09.273Z,8.25
2022-11-10T08:13:36.863Z,8.60
2022-11-10T08:16:04.407Z,6.33
2022-11-10T08:18:35.241Z,7.30
2022-11-10T08:21:02.159Z,6.57
2022-11-10T08:23:29.696Z,6.10
2022-11-10T08:26:00.145Z,6.57
2022-11-10T08:28:27.729Z,6.53
2022-11-10T08:30:55.308Z,6.50
2022-11-10T08:33:23.264Z,8.60
2022-11-10T08:35:51.266Z,7.17
2022-11-10T08:38:19.541Z,6.67
2022-11-10T08:40:47.834Z,6.93
2022-11-10T08:43:15.418Z,7.07
2022-11-10T08:45:42.955Z,6.40
2022-11-10T08:48:10.488Z,6.73
2022-11-10T08:50:38.840Z,7.40
2022-11-10T08:53:06.399Z,7.13
2022-11-10T08:55:33.900Z,6.43
2022-11-10T08:58:01.502Z,7.17
2022-11-10T09:00:29.078Z,6.87
2022-11-10T09:02:56.564Z,7.23
2022-11-10T09:05:24.905Z,7.33
2022-11-10T09:07:52.449Z,7.23
2022-11-10T09:10:19.984Z,8.10
2022-11-10T09:12:47.560Z,6.90
2022-11-10T09:15:15.083Z,6.83
2022-11-10T09:17:42.610Z,7.10
2022-11-10T09:20:10.365Z,8.93
2022-11-10T09:22:37.823Z,11.33
2022-11-10T09:25:05.388Z,10.27
2022-11-10T09:27:37.371Z,9.00
2022-11-10T09:30:05.782Z,10.00
2022-11-10T09:32:33.250Z,9.20
2022-11-10T09:35:00.851Z,7.60
2022-11-10T09:37:28.376Z,8.30
2022-11-10T09:40:01.012Z,10.20
2022-11-10T09:42:28.930Z,7.80
2022-11-10T09:44:59.371Z,7.30
2022-11-10T09:47:55.653Z,7.20
2022-11-10T09:49:57.185Z,7.10
2022-11-10T09:52:25.490Z,7.10
2022-11-10T09:55:23.420Z,6.40
2022-11-10T09:57:50.953Z,7.43
2022-11-10T10:00:18.517Z,7.33
2022-11-10T10:02:48.829Z,9.50
2022-11-10T10:05:28.228Z,8.07
2022-11-10T10:08:01.564Z,9.10
2022-11-10T10:10:34.632Z,8.03
2022-11-10T10:13:20.462Z,6.67
2022-11-10T10:16:08.790Z,6.13
2022-11-10T10:18:48.365Z,5.67
2022-11-10T10:21:31.448Z,7.07
2022-11-10T10:24:10.304Z,6.07
2022-11-10T10:26:30.286Z,6.73
2022-11-10T10:28:57.819Z,6.77
2022-11-10T10:31:25.420Z,8.43
2022-11-10T10:33:53.709Z,8.88
2022-11-10T10:36:23.939Z,7.93
2022-11-10T10:38:51.487Z,7.37
2022-11-10T10:41:24.547Z,7.27
2022-11-10T10:43:52.080Z,7.37
2022-11-10T10:46:22.371Z,7.20
2022-11-10T10:48:53.828Z,7.93
2022-11-10T10:51:29.387Z,9.17
2022-11-10T10:53:56.922Z,9.83
2022-11-10T10:56:24.466Z,12.52
2022-11-10T10:58:55.495Z,9.77
2022-11-10T11:01:32.865Z,10.63
2022-11-10T11:04:01.140Z,10.00
2022-11-10T11:06:28.685Z,10.63
2022-11-10T11:09:02.119Z,10.77
2022-11-10T11:11:33.194Z,12.15
2022-11-10T11:14:21.446Z,9.33
2022-11-10T11:16:57.743Z,9.27
2022-11-10T11:19:25.282Z,9.10
2022-11-10T11:21:58.633Z,9.00
2022-11-10T11:24:40.552Z,8.47
2022-11-10T11:27:26.431Z,8.43
2022-11-10T11:29:59.922Z,9.07
2022-11-10T11:33:01.009Z,8.80
2022-11-10T11:35:34.583Z,8.43
2022-11-10T11:38:10.871Z,8.33
2022-11-10T11:40:53.450Z,8.60
2022-11-10T11:43:23.812Z,8.60
2022-11-10T11:46:00.423Z,9.40
2022-11-10T11:48:30.636Z,11.40
2022-11-10T11:50:58.949Z,8.67
2022-11-10T11:53:44.552Z,8.97
2022-11-10T11:56:27.190Z,8.10
2022-11-10T11:59:03.705Z,8.67
2022-11-10T12:01:39.890Z,9.82
2022-11-10T12:04:25.251Z,8.40
2022-11-10T12:07:17.626Z,8.47
2022-11-10T12:09:45.910Z,7.73
2022-11-10T12:12:31.773Z,7.73
2022-11-10T12:15:04.965Z,7.40
2022-11-10T12:17:44.804Z,6.93
2022-11-10T12:20:15.098Z,7.40
2022-11-10T12:23:00.789Z,7.30
2022-11-10T12:25:46.904Z,7.50
2022-11-10T12:28:26.430Z,7.77
2022-11-10T12:30:57.631Z,9.13
2022-11-10T12:33:39.323Z,8.73
2022-11-10T12:36:06.909Z,8.50
2022-11-10T12:38:59.618Z,8.57
2022-11-10T12:41:20.220Z,8.83
2022-11-10T12:44:09.043Z,9.10
2022-11-10T12:46:36.636Z,7.70
2022-11-10T12:49:18.997Z,7.67
2022-11-10T12:51:46.564Z,7.23
2022-11-10T12:54:16.867Z,6.93
2022-11-10T12:56:44.243Z,7.00
2022-11-10T12:59:20.638Z,5.83
2022-11-10T13:01:48.279Z,6.50
2022-11-10T13:04:15.749Z,5.90
2022-11-10T13:06:58.440Z,5.70
2022-11-10T13:09:25.931Z,5.40
2022-11-10T13:12:05.232Z,5.57
2022-11-10T13:14:32.770Z,5.07
2022-11-10T13:17:00.292Z,5.33
2022-11-10T13:19:30.558Z,5.17
2022-11-10T13:22:01.049Z,4.33
2022-11-10T13:24:31.190Z,4.10
2022-11-10T13:27:01.421Z,4.10
2022-11-10T13:29:43.989Z,3.47
2022-11-10T13:32:14.307Z,3.60
2022-11-10T13:34:47.691Z,3.80
2022-11-10T13:37:30.321Z,3.53
2022-11-10T13:40:25.674Z,3.30
2022-11-10T13:42:59.197Z,3.33
2022-11-10T13:45:38.349Z,4.10
2022-11-10T13:48:11.578Z,3.13
2022-11-10T13:51:07.032Z,3.23
2022-11-10T13:53:55.342Z,2.70
2022-11-10T13:56:32.067Z,3.10
2022-11-10T13:58:59.598Z,2.90
2022-11-10T14:01:27.173Z,3.43
2022-11-10T14:03:54.813Z,2.63
2022-11-10T14:06:24.948Z,3.00
2022-11-10T14:09:22.732Z,3.27
2022-11-10T14:11:50.620Z,3.13
2022-11-10T14:14:26.378Z,3.07
2022-11-10T14:16:53.981Z,2.80
2022-11-10T14:19:24.471Z,2.83
2022-11-10T14:21:58.424Z,3.07
2022-11-10T14:24:32.104Z,2.83
2022-11-10T14:27:00.396Z,3.03
2022-11-10T14:29:30.619Z,3.83
2022-11-10T14:31:58.175Z,3.10
2022-11-10T14:34:25.696Z,2.83
2022-11-10T14:36:59.298Z,2.90
2022-11-10T14:39:29.965Z,3.10
2022-11-10T14:41:57.528Z,2.83
2022-11-10T14:44:25.830Z,3.10
2022-11-10T14:46:53.355Z,2.50
2022-11-10T14:49:23.930Z,2.83
2022-11-10T14:51:51.525Z,2.40
2022-11-10T14:54:19.810Z,2.87
2022-11-10T14:56:48.139Z,3.23
2022-11-10T14:59:15.694Z,3.67
2022-11-10T15:01:43.220Z,8.83
2022-11-10T15:04:10.794Z,5.40
2022-11-10T15:06:43.092Z,3.73
2022-11-10T15:09:14.842Z,3.27
2022-11-10T15:11:48.782Z,2.90
2022-11-10T15:14:40.569Z,3.00
2022-11-10T15:17:08.148Z,3.00
2022-11-10T15:19:47.160Z,2.70
2022-11-10T15:22:14.762Z,3.00
2022-11-10T15:24:43.065Z,3.25
2022-11-10T15:27:22.659Z,3.47
2022-11-10T15:29:50.190Z,2.37
2022-11-10T15:32:17.722Z,2.30
2022-11-10T15:34:45.314Z,2.50
2022-11-10T15:37:30.219Z,2.17
2022-11-10T15:39:52.785Z,2.00
2022-11-10T15:42:23.997Z,2.13
2022-11-10T15:44:51.491Z,2.53
2022-11-10T15:47:19.106Z,2.63
2022-11-10T15:49:46.649Z,2.70
2022-11-10T15:52:20.408Z,2.20
2022-11-10T15:54:47.972Z,3.23
2022-11-10T15:57:15.555Z,2.83
2022-11-10T15:59:43.818Z,3.80
2022-11-10T16:02:20.216Z,3.75
2022-11-10T16:04:47.750Z,3.60
2022-11-10T16:07:15.307Z,3.20
2022-11-10T16:09:44.089Z,3.77
2022-11-10T16:12:14.126Z,3.40
2022-11-10T16:14:41.650Z,4.25
2022-11-10T16:17:10.015Z,3.90
2022-11-10T16:19:37.536Z,4.90
2022-11-10T16:22:05.082Z,4.93
2022-11-10T16:24:32.681Z,7.07
2022-11-10T16:27:00.211Z,5.53
2022-11-10T16:29:27.759Z,6.37
2022-11-10T16:31:55.354Z,6.03
2022-11-10T16:34:22.896Z,6.57
2022-11-10T16:36:50.448Z,8.55
2022-11-10T16:39:18.031Z,8.17
2022-11-10T16:41:45.586Z,7.73
2022-11-10T16:44:13.148Z,7.93
2022-11-10T16:46:40.755Z,7.80
2022-11-10T16:49:08.282Z,6.67
2022-11-10T16:51:42.935Z,9.80
2022-11-10T16:54:08.372Z,8.07
2022-11-10T16:56:35.918Z,7.70
2022-11-10T16:59:03.461Z,8.37
2022-11-10T17:01:31.081Z,7.30
2022-11-10T17:03:58.620Z,8.23
2022-11-10T17:06:26.134Z,7.27
2022-11-10T17:08:53.727Z,7.50
2022-11-10T17:11:21.262Z,9.10
2022-11-10T17:13:48.786Z,8.10
2022-11-10T17:16:29.398Z,8.33
2022-11-10T17:18:56.942Z,8.53
2022-11-10T17:21:28.529Z,9.37
2022-11-10T17:23:52.830Z,10.80
2022-11-10T17:26:20.375Z,10.27
2022-11-10T17:28:47.928Z,11.93
2022-11-10T17:31:15.513Z,11.45
2022-11-10T17:33:43.057Z,10.33
2022-11-10T17:36:13.261Z,9.90
2022-11-10T17:38:40.814Z,9.90
2022-11-10T17:41:08.339Z,8.90
2022-11-10T17:43:35.873Z,9.63
2022-11-10T17:46:03.446Z,9.73
2022-11-10T17:48:31.771Z,13.00
2022-11-10T17:50:59.295Z,10.07
2022-11-10T17:53:27.769Z,9.90
2022-11-10T17:55:55.192Z,10.07
2022-11-10T17:58:22.765Z,9.60
2022-11-10T18:00:50.330Z,9.53
2022-11-10T18:03:18.621Z,9.83
2022-11-10T18:05:46.941Z,11.10
2022-11-10T18:08:15.112Z,10.13
2022-11-10T18:10:51.440Z,9.27
2022-11-10T18:13:19.012Z,10.23
2022-11-10T18:15:46.579Z,9.90
2022-11-10T18:18:14.107Z,9.90
2022-11-10T18:20:42.406Z,10.97
2022-11-10T18:23:10.578Z,10.50
2022-11-10T18:25:40.849Z,11.07
2022-11-10T18:28:08.365Z,10.80
2022-11-10T18:30:35.953Z,11.43
2022-11-10T18:33:03.504Z,11.77
2022-11-10T18:35:31.060Z,11.40
2022-11-10T18:37:58.637Z,10.90
2022-11-10T18:40:26.169Z,11.67
2022-11-10T18:43:04.484Z,12.33
2022-11-10T18:45:26.840Z,12.63
2022-11-10T18:47:54.372Z,11.87
2022-11-10T18:50:21.898Z,12.90
2022-11-10T18:52:50.242Z,12.60
2022-11-10T18:55:17.797Z,14.13
2022-11-10T18:57:45.319Z,12.23
2022-11-10T19:00:13.053Z,11.77
2022-11-10T19:02:41.345Z,12.40
2022-11-10T19:05:09.036Z,11.53
2022-11-10T19:07:36.650Z,10.47
2022-11-10T19:10:04.195Z,11.97
2022-11-10T19:12:31.730Z,14.97
2022-11-10T19:14:59.325Z,12.93
2022-11-10T19:17:27.637Z,16.70
2022-11-10T19:19:56.848Z,14.20
2022-11-10T19:22:23.229Z,13.07
2022-11-10T19:25:07.721Z,14.18
2022-11-10T19:27:19.197Z,12.53
2022-11-10T19:29:47.399Z,11.30
2022-11-10T19:32:14.943Z,11.70
2022-11-10T19:34:42.483Z,11.57
2022-11-10T19:37:10.832Z,11.67
2022-11-10T19:39:38.390Z,12.10
2022-11-10T19:42:05.912Z,12.23
2022-11-10T19:44:34.079Z,15.98
2022-11-10T19:47:01.622Z,13.33
2022-11-10T19:49:29.177Z,12.13
2022-11-10T19:51:56.761Z,12.03
2022-11-10T19:54:24.324Z,12.40
2022-11-10T19:56:51.881Z,11.40
2022-11-10T19:59:19.847Z,12.00
2022-11-10T20:01:47.450Z,11.93
2022-11-10T20:04:14.928Z,11.80
2022-11-10T20:06:43.326Z,10.87
2022-11-10T20:09:11.601Z,12.13
2022-11-10T20:11:39.128Z,12.47
2022-11-10T20:14:07.469Z,11.67
2022-11-10T20:16:35.004Z,12.17
2022-11-10T20:19:02.538Z,13.17
2022-11-10T20:21:30.122Z,12.73
2022-11-10T20:23:57.658Z,12.40
2022-11-10T20:26:25.980Z,12.47
2022-11-10T20:28:53.561Z,12.90
2022-11-10T20:31:21.114Z,12.03
2022-11-10T20:33:48.641Z,12.90
2022-11-10T20:36:20.311Z,16.25
2022-11-10T20:38:43.790Z,13.80
2022-11-10T20:41:13.775Z,13.00
2022-11-10T20:43:41.342Z,12.77
2022-11-10T20:46:13.626Z,13.23
2022-11-10T20:48:37.751Z,14.33
2022-11-10T20:51:11.192Z,15.23
2022-11-10T20:53:38.717Z,13.50
2022-11-10T20:56:06.252Z,14.47
2022-11-10T20:58:34.594Z,15.13
2022-11-10T21:01:02.138Z,14.60
2022-11-10T21:03:29.733Z,14.80
2022-11-10T21:05:58.381Z,15.73
2022-11-10T21:08:25.925Z,14.67
2022-11-10T21:10:53.459Z,14.47
2022-11-10T21:13:22.142Z,15.43
2022-11-10T21:15:49.374Z,15.60
2022-11-10T21:18:16.926Z,15.40
2022-11-10T21:20:44.839Z,19.25
2022-11-10T21:23:12.383Z,15.87
2022-11-10T21:25:40.725Z,15.03
2022-11-10T21:28:08.546Z,15.60
2022-11-10T21:30:36.080Z,14.43
2022-11-10T21:33:04.391Z,15.00
2022-11-10T21:35:37.716Z,15.07
2022-11-10T21:37:59.788Z,15.83
2022-11-10T21:40:28.103Z,16.50
2022-11-10T21:42:55.714Z,15.23
2022-11-10T21:45:23.237Z,15.23
2022-11-10T21:47:50.782Z,15.60
2022-11-10T21:50:18.427Z,15.20
2022-11-10T21:52:46.698Z,15.27
2022-11-10T21:55:14.233Z,15.97
2022-11-10T21:57:42.575Z,15.90
2022-11-10T22:00:10.404Z,16.17
2022-11-10T22:02:37.959Z,17.20
2022-11-10T22:05:05.524Z,17.13
2022-11-10T22:07:33.079Z,15.73
2022-11-10T22:10:18.962Z,15.53
2022-11-10T22:13:04.368Z,14.07
2022-11-10T22:15:50.089Z,14.20
2022-11-10T22:18:36.813Z,14.57
2022-11-10T22:21:05.161Z,13.63
2022-11-10T22:23:50.927Z,13.43
2022-11-10T22:26:18.508Z,13.30
2022-11-10T22:28:46.044Z,15.10
2022-11-10T22:31:13.597Z,13.53
2022-11-10T22:33:41.163Z,14.80
2022-11-10T22:36:11.199Z,14.80
2022-11-10T22:38:38.742Z,14.47
2022-11-10T22:41:24.404Z,14.87
2022-11-10T22:43:57.816Z,15.00
2022-11-10T22:46:25.350Z,14.97
2022-11-10T22:48:53.043Z,19.30
2022-11-10T22:51:20.569Z,15.87
2022-11-10T22:53:48.124Z,15.50
2022-11-10T22:56:16.498Z,14.67
2022-11-10T22:58:44.807Z,13.47
2022-11-10T23:01:12.403Z,14.10
2022-11-10T23:03:39.944Z,13.53
2022-11-10T23:06:07.481Z,13.43
2022-11-10T23:08:35.035Z,17.25
2022-11-10T23:11:08.525Z,14.50
2022-11-10T23:13:36.089Z,14.60
2022-11-10T23:16:06.274Z,14.27
2022-11-10T23:18:34.596Z,15.27
2022-11-10T23:21:02.942Z,16.97
2022-11-10T23:23:33.907Z,17.20
2022-11-10T23:26:01.505Z,16.53
2022-11-10T23:28:29.032Z,15.40
2022-11-10T23:31:11.607Z,16.10
2022-11-10T23:33:39.155Z,15.47
2022-11-10T23:36:07.582Z,14.07
2022-11-10T23:38:35.176Z,13.77
2022-11-10T23:41:02.720Z,12.93
2022-11-10T23:43:30.278Z,14.83
2022-11-10T23:46:06.793Z,14.67
2022-11-10T23:48:25.806Z,13.43
2022-11-10T23:50:53.213Z,14.43
2022-11-10T23:53:20.962Z,13.37
2022-11-10T23:55:48.330Z,11.03
2022-11-10T23:58:15.876Z,11.17
